sensor_id;sensor_type;location;lat;lon;timestamp;temperature;humidity
23544;DHT22;11950;51.230;4.012;2023-05-10T00:30:03;14.70;99.90
23544;DHT22;11950;51.230;4.012;2023-05-10T00:32:36;14.70;99.90
23544;DHT22;11950;51.230;4.012;2023-05-10T00:35:02;14.70;99.90
23544;DHT22;11950;51.230;4.012;2023-05-10T00:37:29;14.60;99.90
23544;DHT22;11950;51.230;4.012;2023-05-10T00:39:55;14.60;99.90
23544;DHT22;11950;51.230;4.012;2023-05-10T00:42:21;14.60;99.90
23544;DHT22;11950;51.230;4.012;2023-05-10T00:44:48;14.60;99.90
23544;DHT22;11950;51.230;4.012;2023-05-10T00:47:15;14.60;99.90
23544;DHT22;11950;51.230;4.012;2023-05-10T00:49:43;14.60;99.90
23544;DHT22;11950;51.230;4.012;2023-05-10T00:52:10;14.60;99.90
23544;DHT22;11950;51.230;4.012;2023-05-10T00:54:37;14.60;99.90
23544;DHT22;11950;51.230;4.012;2023-05-10T00:57:03;14.60;99.90
23544;DHT22;11950;51.230;4.012;2023-05-10T00:59:30;14.60;99.90
23544;DHT22;11950;51.230;4.012;2023-05-10T01:01:57;14.60;99.90
23544;DHT22;11950;51.230;4.012;2023-05-10T01:04:24;14.70;99.90
23544;DHT22;11950;51.230;4.012;2023-05-10T01:06:53;14.70;99.90
23544;DHT22;11950;51.230;4.012;2023-05-10T01:09:21;14.70;99.90
23544;DHT22;11950;51.230;4.012;2023-05-10T01:11:47;14.70;99.90
23544;DHT22;11950;51.230;4.012;2023-05-10T01:14:16;14.70;99.90
23544;DHT22;11950;51.230;4.012;2023-05-10T01:16:44;14.70;99.90
23544;DHT22;11950;51.230;4.012;2023-05-10T01:19:18;14.70;99.90
23544;DHT22;11950;51.230;4.012;2023-05-10T01:25:06;14.70;99.90
23544;DHT22;11950;51.230;4.012;2023-05-10T01:33:33;14.70;99.90
23544;DHT22;11950;51.230;4.012;2023-05-10T01:38:44;14.70;99.90
23544;DHT22;11950;51.230;4.012;2023-05-10T01:41:19;14.80;99.90
23544;DHT22;11950;51.230;4.012;2023-05-10T01:46:51;14.80;99.90
23544;DHT22;11950;51.230;4.012;2023-05-10T01:49:24;14.80;99.90
23544;DHT22;11950;51.230;4.012;2023-05-10T01:51:53;14.80;99.90
23544;DHT22;11950;51.230;4.012;2023-05-10T01:54:24;14.80;99.90
23544;DHT22;11950;51.230;4.012;2023-05-10T01:57:05;14.80;99.90
23544;DHT22;11950;51.230;4.012;2023-05-10T01:59:34;14.70;99.90
23544;DHT22;11950;51.230;4.012;2023-05-10T02:02:08;14.80;99.90
23544;DHT22;11950;51.230;4.012;2023-05-10T02:04:39;14.80;99.90
23544;DHT22;11950;51.230;4.012;2023-05-10T02:07:07;14.80;99.90
23544;DHT22;11950;51.230;4.012;2023-05-10T02:09:35;14.80;99.90
23544;DHT22;11950;51.230;4.012;2023-05-10T02:12:04;14.80;99.90
23544;DHT22;11950;51.230;4.012;2023-05-10T02:14:35;14.80;99.90
23544;DHT22;11950;51.230;4.012;2023-05-10T02:17:04;14.80;99.90
23544;DHT22;11950;51.230;4.012;2023-05-10T02:19:32;14.70;99.90
23544;DHT22;11950;51.230;4.012;2023-05-10T02:21:59;14.70;99.90
23544;DHT22;11950;51.230;4.012;2023-05-10T02:24:27;14.70;99.90
23544;DHT22;11950;51.230;4.012;2023-05-10T02:26:54;14.70;99.90
23544;DHT22;11950;51.230;4.012;2023-05-10T02:29:23;14.70;99.90
23544;DHT22;11950;51.230;4.012;2023-05-10T02:31:54;14.70;99.90
23544;DHT22;11950;51.230;4.012;2023-05-10T02:34:22;14.70;99.90
23544;DHT22;11950;51.230;4.012;2023-05-10T02:36:50;14.60;99.90
23544;DHT22;11950;51.230;4.012;2023-05-10T02:39:19;14.70;99.90
23544;DHT22;11950;51.230;4.012;2023-05-10T02:41:47;14.60;99.90
23544;DHT22;11950;51.230;4.012;2023-05-10T02:44:20;14.60;99.90
23544;DHT22;11950;51.230;4.012;2023-05-10T02:46:47;14.60;99.90
23544;DHT22;11950;51.230;4.012;2023-05-10T02:49:14;14.60;99.90
23544;DHT22;11950;51.230;4.012;2023-05-10T02:51:50;14.60;99.90
23544;DHT22;11950;51.230;4.012;2023-05-10T02:54:20;14.60;99.90
23544;DHT22;11950;51.230;4.012;2023-05-10T02:56:52;14.60;99.90
23544;DHT22;11950;51.230;4.012;2023-05-10T02:59:20;14.60;99.90
23544;DHT22;11950;51.230;4.012;2023-05-10T03:01:46;14.60;99.90
23544;DHT22;11950;51.230;4.012;2023-05-10T03:04:12;14.60;99.90
23544;DHT22;11950;51.230;4.012;2023-05-10T03:06:39;14.60;99.90
23544;DHT22;11950;51.230;4.012;2023-05-10T03:09:06;14.60;99.90
23544;DHT22;11950;51.230;4.012;2023-05-10T03:19:50;14.50;99.90
23544;DHT22;11950;51.230;4.012;2023-05-10T03:22:25;14.50;99.90
23544;DHT22;11950;51.230;4.012;2023-05-10T03:24:56;14.50;99.90
23544;DHT22;11950;51.230;4.012;2023-05-10T03:27:30;14.60;99.90
23544;DHT22;11950;51.230;4.012;2023-05-10T03:29:59;14.50;99.90
23544;DHT22;11950;51.230;4.012;2023-05-10T03:32:29;14.50;99.90
23544;DHT22;11950;51.230;4.012;2023-05-10T03:34:58;14.50;99.90
23544;DHT22;11950;51.230;4.012;2023-05-10T03:37:25;14.50;99.90
23544;DHT22;11950;51.230;4.012;2023-05-10T03:39:52;14.50;99.90
23544;DHT22;11950;51.230;4.012;2023-05-10T03:42:18;14.50;99.90
23544;DHT22;11950;51.230;4.012;2023-05-10T03:44:44;14.50;99.90
23544;DHT22;11950;51.230;4.012;2023-05-10T03:47:10;14.50;99.90
23544;DHT22;11950;51.230;4.012;2023-05-10T03:49:37;14.50;99.90
23544;DHT22;11950;51.230;4.012;2023-05-10T03:52:03;14.50;99.90
23544;DHT22;11950;51.230;4.012;2023-05-10T03:54:31;14.50;99.90
23544;DHT22;11950;51.230;4.012;2023-05-10T03:56:58;14.50;99.90
23544;DHT22;11950;51.230;4.012;2023-05-10T03:59:26;14.40;99.90
23544;DHT22;11950;51.230;4.012;2023-05-10T04:01:53;14.50;99.90
23544;DHT22;11950;51.230;4.012;2023-05-10T04:04:19;14.40;99.90
23544;DHT22;11950;51.230;4.012;2023-05-10T04:06:49;14.40;99.90
23544;DHT22;11950;51.230;4.012;2023-05-10T04:09:16;14.40;99.90
23544;DHT22;11950;51.230;4.012;2023-05-10T04:11:43;14.50;99.90
23544;DHT22;11950;51.230;4.012;2023-05-10T04:14:09;14.40;99.90
23544;DHT22;11950;51.230;4.012;2023-05-10T04:16:36;14.50;99.90
23544;DHT22;11950;51.230;4.012;2023-05-10T04:19:02;14.40;99.90
23544;DHT22;11950;51.230;4.012;2023-05-10T04:21:28;14.40;99.90
23544;DHT22;11950;51.230;4.012;2023-05-10T04:23:55;14.40;99.90
23544;DHT22;11950;51.230;4.012;2023-05-10T04:26:21;14.50;99.90
23544;DHT22;11950;51.230;4.012;2023-05-10T04:28:48;14.40;99.90
23544;DHT22;11950;51.230;4.012;2023-05-10T04:31:14;14.40;99.90
23544;DHT22;11950;51.230;4.012;2023-05-10T04:33:40;14.50;99.90
23544;DHT22;11950;51.230;4.012;2023-05-10T04:36:07;14.50;99.90
23544;DHT22;11950;51.230;4.012;2023-05-10T04:38:33;14.50;99.90
23544;DHT22;11950;51.230;4.012;2023-05-10T04:41:07;14.50;99.90
23544;DHT22;11950;51.230;4.012;2023-05-10T04:43:34;14.50;99.90
23544;DHT22;11950;51.230;4.012;2023-05-10T04:46:00;14.50;99.90
23544;DHT22;11950;51.230;4.012;2023-05-10T04:48:26;14.50;99.90
23544;DHT22;11950;51.230;4.012;2023-05-10T04:50:52;14.50;99.90
23544;DHT22;11950;51.230;4.012;2023-05-10T04:53:19;14.50;99.90
23544;DHT22;11950;51.230;4.012;2023-05-10T04:55:45;14.50;99.90
23544;DHT22;11950;51.230;4.012;2023-05-10T04:58:12;14.50;99.90
23544;DHT22;11950;51.230;4.012;2023-05-10T05:00:42;14.50;99.90
23544;DHT22;11950;51.230;4.012;2023-05-10T05:03:08;14.50;99.90
23544;DHT22;11950;51.230;4.012;2023-05-10T05:05:35;14.50;99.90
23544;DHT22;11950;51.230;4.012;2023-05-10T05:08:01;14.50;99.90
23544;DHT22;11950;51.230;4.012;2023-05-10T05:10:28;14.60;99.90
23544;DHT22;11950;51.230;4.012;2023-05-10T05:12:54;14.60;99.90
23544;DHT22;11950;51.230;4.012;2023-05-10T05:15:20;14.60;99.90
23544;DHT22;11950;51.230;4.012;2023-05-10T05:17:47;14.60;99.90
23544;DHT22;11950;51.230;4.012;2023-05-10T05:20:13;14.60;99.90
23544;DHT22;11950;51.230;4.012;2023-05-10T05:22:40;14.60;99.90
23544;DHT22;11950;51.230;4.012;2023-05-10T05:25:06;14.60;99.90
23544;DHT22;11950;51.230;4.012;2023-05-10T05:27:33;14.60;99.90
23544;DHT22;11950;51.230;4.012;2023-05-10T05:29:59;14.60;99.90
23544;DHT22;11950;51.230;4.012;2023-05-10T05:32:25;14.60;99.90
23544;DHT22;11950;51.230;4.012;2023-05-10T05:34:52;14.70;99.90
23544;DHT22;11950;51.230;4.012;2023-05-10T05:37:19;14.80;99.90
23544;DHT22;11950;51.230;4.012;2023-05-10T05:39:47;14.80;99.90
23544;DHT22;11950;51.230;4.012;2023-05-10T05:42:14;14.90;99.90
23544;DHT22;11950;51.230;4.012;2023-05-10T05:44:41;14.90;99.90
23544;DHT22;11950;51.230;4.012;2023-05-10T05:47:08;14.80;99.90
23544;DHT22;11950;51.230;4.012;2023-05-10T05:49:34;14.90;99.90
23544;DHT22;11950;51.230;4.012;2023-05-10T05:52:04;14.90;99.90
23544;DHT22;11950;51.230;4.012;2023-05-10T05:54:30;14.90;99.90
23544;DHT22;11950;51.230;4.012;2023-05-10T05:57:00;15.00;99.90
23544;DHT22;11950;51.230;4.012;2023-05-10T05:59:29;14.90;99.90
23544;DHT22;11950;51.230;4.012;2023-05-10T06:01:56;14.90;99.90
23544;DHT22;11950;51.230;4.012;2023-05-10T06:04:22;14.90;99.90
23544;DHT22;11950;51.230;4.012;2023-05-10T06:06:48;14.90;99.90
23544;DHT22;11950;51.230;4.012;2023-05-10T06:09:15;15.00;99.90
23544;DHT22;11950;51.230;4.012;2023-05-10T06:11:41;15.00;99.90
23544;DHT22;11950;51.230;4.012;2023-05-10T06:14:14;15.00;99.90
23544;DHT22;11950;51.230;4.012;2023-05-10T06:16:43;14.90;99.90
23544;DHT22;11950;51.230;4.012;2023-05-10T06:19:38;15.00;99.90
23544;DHT22;11950;51.230;4.012;2023-05-10T06:22:07;15.40;99.90
23544;DHT22;11950;51.230;4.012;2023-05-10T06:24:47;15.00;99.90
23544;DHT22;11950;51.230;4.012;2023-05-10T06:27:13;15.00;99.90
23544;DHT22;11950;51.230;4.012;2023-05-10T06:29:39;15.00;99.90
23544;DHT22;11950;51.230;4.012;2023-05-10T06:32:06;15.00;99.90
23544;DHT22;11950;51.230;4.012;2023-05-10T06:34:59;15.10;99.90
23544;DHT22;11950;51.230;4.012;2023-05-10T06:37:28;15.10;99.90
23544;DHT22;11950;51.230;4.012;2023-05-10T06:39:56;15.10;99.90
23544;DHT22;11950;51.230;4.012;2023-05-10T06:42:22;15.10;99.90
23544;DHT22;11950;51.230;4.012;2023-05-10T06:44:51;15.10;99.90
23544;DHT22;11950;51.230;4.012;2023-05-10T06:47:36;15.60;99.90
23544;DHT22;11950;51.230;4.012;2023-05-10T06:50:06;15.10;99.90
23544;DHT22;11950;51.230;4.012;2023-05-10T06:52:36;15.20;99.90
23544;DHT22;11950;51.230;4.012;2023-05-10T06:55:08;15.20;99.90
23544;DHT22;11950;51.230;4.012;2023-05-10T06:57:35;15.20;99.90
23544;DHT22;11950;51.230;4.012;2023-05-10T07:00:02;15.30;99.90
23544;DHT22;11950;51.230;4.012;2023-05-10T07:02:34;15.30;99.90
23544;DHT22;11950;51.230;4.012;2023-05-10T07:05:01;15.30;99.90
23544;DHT22;11950;51.230;4.012;2023-05-10T07:07:28;15.40;99.90
23544;DHT22;11950;51.230;4.012;2023-05-10T07:09:54;15.40;99.90
23544;DHT22;11950;51.230;4.012;2023-05-10T07:12:22;15.40;99.90
23544;DHT22;11950;51.230;4.012;2023-05-10T07:14:48;15.50;99.90
23544;DHT22;11950;51.230;4.012;2023-05-10T07:17:15;15.50;99.90
23544;DHT22;11950;51.230;4.012;2023-05-10T07:19:42;15.60;99.90
23544;DHT22;11950;51.230;4.012;2023-05-10T07:22:08;15.60;99.90
23544;DHT22;11950;51.230;4.012;2023-05-10T07:24:34;15.70;99.90
23544;DHT22;11950;51.230;4.012;2023-05-10T07:27:01;15.80;99.90
23544;DHT22;11950;51.230;4.012;2023-05-10T07:29:30;15.80;99.90
23544;DHT22;11950;51.230;4.012;2023-05-10T07:31:56;15.80;99.90
23544;DHT22;11950;51.230;4.012;2023-05-10T07:34:22;15.90;99.90
23544;DHT22;11950;51.230;4.012;2023-05-10T07:36:49;15.90;99.90
23544;DHT22;11950;51.230;4.012;2023-05-10T07:39:15;16.00;99.90
23544;DHT22;11950;51.230;4.012;2023-05-10T07:41:45;16.00;99.90
23544;DHT22;11950;51.230;4.012;2023-05-10T07:44:14;16.00;99.90
23544;DHT22;11950;51.230;4.012;2023-05-10T07:46:44;16.00;99.90
23544;DHT22;11950;51.230;4.012;2023-05-10T07:49:10;16.00;99.90
23544;DHT22;11950;51.230;4.012;2023-05-10T07:51:36;16.00;99.90
23544;DHT22;11950;51.230;4.012;2023-05-10T07:54:03;16.10;99.90
23544;DHT22;11950;51.230;4.012;2023-05-10T07:56:32;16.10;99.90
23544;DHT22;11950;51.230;4.012;2023-05-10T07:58:59;16.10;99.90
23544;DHT22;11950;51.230;4.012;2023-05-10T08:01:26;16.20;99.90
23544;DHT22;11950;51.230;4.012;2023-05-10T08:03:53;16.20;99.90
23544;DHT22;11950;51.230;4.012;2023-05-10T08:06:20;16.20;99.90
23544;DHT22;11950;51.230;4.012;2023-05-10T08:08:47;16.20;99.90
23544;DHT22;11950;51.230;4.012;2023-05-10T08:11:20;16.20;99.90
23544;DHT22;11950;51.230;4.012;2023-05-10T08:13:48;16.20;99.90
23544;DHT22;11950;51.230;4.012;2023-05-10T08:16:15;16.30;99.90
23544;DHT22;11950;51.230;4.012;2023-05-10T08:18:44;16.20;99.90
23544;DHT22;11950;51.230;4.012;2023-05-10T08:21:15;16.20;99.90
23544;DHT22;11950;51.230;4.012;2023-05-10T08:23:44;16.20;99.90
23544;DHT22;11950;51.230;4.012;2023-05-10T08:26:13;16.20;99.90
23544;DHT22;11950;51.230;4.012;2023-05-10T08:28:39;16.20;99.90
23544;DHT22;11950;51.230;4.012;2023-05-10T08:31:06;16.20;99.90
23544;DHT22;11950;51.230;4.012;2023-05-10T08:33:32;16.20;99.90
23544;DHT22;11950;51.230;4.012;2023-05-10T08:36:36;16.30;99.90
23544;DHT22;11950;51.230;4.012;2023-05-10T08:39:12;16.40;99.90
23544;DHT22;11950;51.230;4.012;2023-05-10T08:46:33;16.60;99.90
23544;DHT22;11950;51.230;4.012;2023-05-10T08:49:11;16.60;99.90
23544;DHT22;11950;51.230;4.012;2023-05-10T08:52:02;16.80;99.90
23544;DHT22;11950;51.230;4.012;2023-05-10T08:54:31;16.80;99.90
23544;DHT22;11950;51.230;4.012;2023-05-10T08:56:58;16.90;99.90
23544;DHT22;11950;51.230;4.012;2023-05-10T08:59:27;17.00;99.90
23544;DHT22;11950;51.230;4.012;2023-05-10T09:02:53;17.00;99.90
23544;DHT22;11950;51.230;4.012;2023-05-10T09:05:19;16.90;99.90
23544;DHT22;11950;51.230;4.012;2023-05-10T09:08:02;17.20;99.90
23544;DHT22;11950;51.230;4.012;2023-05-10T09:10:29;17.20;99.90
23544;DHT22;11950;51.230;4.012;2023-05-10T09:12:56;17.20;99.90
23544;DHT22;11950;51.230;4.012;2023-05-10T09:15:23;17.20;99.90
23544;DHT22;11950;51.230;4.012;2023-05-10T09:17:50;17.20;99.90
23544;DHT22;11950;51.230;4.012;2023-05-10T09:20:45;17.20;99.90
23544;DHT22;11950;51.230;4.012;2023-05-10T09:23:18;17.20;99.90
23544;DHT22;11950;51.230;4.012;2023-05-10T09:25:44;17.20;99.90
23544;DHT22;11950;51.230;4.012;2023-05-10T09:28:14;17.10;99.90
23544;DHT22;11950;51.230;4.012;2023-05-10T09:30:40;17.20;99.90
23544;DHT22;11950;51.230;4.012;2023-05-10T09:33:09;17.20;99.90
23544;DHT22;11950;51.230;4.012;2023-05-10T09:35:35;17.20;99.90
23544;DHT22;11950;51.230;4.012;2023-05-10T09:38:05;17.10;99.90
23544;DHT22;11950;51.230;4.012;2023-05-10T09:40:32;17.10;99.90
23544;DHT22;11950;51.230;4.012;2023-05-10T09:43:00;17.10;99.90
23544;DHT22;11950;51.230;4.012;2023-05-10T09:45:28;17.00;99.90
23544;DHT22;11950;51.230;4.012;2023-05-10T09:47:56;17.00;99.90
23544;DHT22;11950;51.230;4.012;2023-05-10T09:50:23;17.00;99.90
23544;DHT22;11950;51.230;4.012;2023-05-10T09:55:21;17.00;99.90
23544;DHT22;11950;51.230;4.012;2023-05-10T09:57:49;17.00;99.90
23544;DHT22;11950;51.230;4.012;2023-05-10T10:00:19;17.00;99.90
23544;DHT22;11950;51.230;4.012;2023-05-10T10:02:48;16.90;99.90
23544;DHT22;11950;51.230;4.012;2023-05-10T10:05:20;17.20;99.90
23544;DHT22;11950;51.230;4.012;2023-05-10T10:07:46;17.30;99.90
23544;DHT22;11950;51.230;4.012;2023-05-10T10:10:15;17.30;99.90
23544;DHT22;11950;51.230;4.012;2023-05-10T10:13:02;17.40;99.90
23544;DHT22;11950;51.230;4.012;2023-05-10T10:15:49;17.40;99.90
23544;DHT22;11950;51.230;4.012;2023-05-10T10:18:17;17.50;99.90
23544;DHT22;11950;51.230;4.012;2023-05-10T10:20:45;17.60;99.90
23544;DHT22;11950;51.230;4.012;2023-05-10T10:23:12;17.60;99.90
23544;DHT22;11950;51.230;4.012;2023-05-10T10:25:38;17.70;99.90
23544;DHT22;11950;51.230;4.012;2023-05-10T10:28:36;17.70;99.90
23544;DHT22;11950;51.230;4.012;2023-05-10T10:31:36;17.80;99.90
23544;DHT22;11950;51.230;4.012;2023-05-10T10:34:16;17.90;99.90
23544;DHT22;11950;51.230;4.012;2023-05-10T10:36:45;18.00;99.90
23544;DHT22;11950;51.230;4.012;2023-05-10T10:39:12;18.10;99.90
23544;DHT22;11950;51.230;4.012;2023-05-10T10:41:49;18.10;99.90
23544;DHT22;11950;51.230;4.012;2023-05-10T10:44:22;18.20;99.90
23544;DHT22;11950;51.230;4.012;2023-05-10T10:49:25;18.40;99.90
23544;DHT22;11950;51.230;4.012;2023-05-10T10:52:23;18.40;99.90
23544;DHT22;11950;51.230;4.012;2023-05-10T10:55:00;18.40;99.90
23544;DHT22;11950;51.230;4.012;2023-05-10T10:57:28;18.50;99.90
23544;DHT22;11950;51.230;4.012;2023-05-10T11:02:59;18.70;99.90
23544;DHT22;11950;51.230;4.012;2023-05-10T11:07:57;18.70;99.90
23544;DHT22;11950;51.230;4.012;2023-05-10T11:10:25;18.80;99.90
23544;DHT22;11950;51.230;4.012;2023-05-10T11:13:13;18.80;99.90
23544;DHT22;11950;51.230;4.012;2023-05-10T11:15:48;18.80;99.90
23544;DHT22;11950;51.230;4.012;2023-05-10T11:18:28;18.80;99.90
23544;DHT22;11950;51.230;4.012;2023-05-10T11:20:57;18.80;99.90
23544;DHT22;11950;51.230;4.012;2023-05-10T11:23:32;18.70;99.90
23544;DHT22;11950;51.230;4.012;2023-05-10T11:25:59;18.70;99.90
23544;DHT22;11950;51.230;4.012;2023-05-10T11:28:27;18.60;99.90
23544;DHT22;11950;51.230;4.012;2023-05-10T11:30:54;18.50;99.90
23544;DHT22;11950;51.230;4.012;2023-05-10T11:33:21;18.50;99.90
23544;DHT22;11950;51.230;4.012;2023-05-10T11:35:48;18.40;99.90
23544;DHT22;11950;51.230;4.012;2023-05-10T11:38:14;18.30;99.90
23544;DHT22;11950;51.230;4.012;2023-05-10T11:40:41;18.20;99.90
23544;DHT22;11950;51.230;4.012;2023-05-10T11:43:09;18.10;99.90
23544;DHT22;11950;51.230;4.012;2023-05-10T11:45:36;18.00;99.90
23544;DHT22;11950;51.230;4.012;2023-05-10T11:48:05;17.80;99.90
23544;DHT22;11950;51.230;4.012;2023-05-10T11:51:08;17.70;99.90
23544;DHT22;11950;51.230;4.012;2023-05-10T11:58:37;17.40;99.90
23544;DHT22;11950;51.230;4.012;2023-05-10T12:01:05;17.20;99.90
23544;DHT22;11950;51.230;4.012;2023-05-10T12:03:36;17.10;99.90
23544;DHT22;11950;51.230;4.012;2023-05-10T12:06:03;17.10;99.90
23544;DHT22;11950;51.230;4.012;2023-05-10T12:08:30;17.10;99.90
23544;DHT22;11950;51.230;4.012;2023-05-10T12:11:08;17.10;99.90
23544;DHT22;11950;51.230;4.012;2023-05-10T12:13:38;17.10;99.90
23544;DHT22;11950;51.230;4.012;2023-05-10T12:18:40;17.00;99.90
23544;DHT22;11950;51.230;4.012;2023-05-10T12:21:10;17.00;99.90
23544;DHT22;11950;51.230;4.012;2023-05-10T12:23:40;17.00;99.90
23544;DHT22;11950;51.230;4.012;2023-05-10T12:26:09;17.00;99.90
23544;DHT22;11950;51.230;4.012;2023-05-10T12:29:12;17.00;99.90
23544;DHT22;11950;51.230;4.012;2023-05-10T12:31:58;17.00;99.90
23544;DHT22;11950;51.230;4.012;2023-05-10T12:34:25;16.90;99.90
23544;DHT22;11950;51.230;4.012;2023-05-10T12:36:53;16.90;99.90
23544;DHT22;11950;51.230;4.012;2023-05-10T12:39:19;16.80;99.90
23544;DHT22;11950;51.230;4.012;2023-05-10T12:41:46;16.80;99.90
23544;DHT22;11950;51.230;4.012;2023-05-10T12:47:19;16.70;99.90
23544;DHT22;11950;51.230;4.012;2023-05-10T12:49:45;16.70;99.90
23544;DHT22;11950;51.230;4.012;2023-05-10T12:52:12;16.70;99.90
23544;DHT22;11950;51.230;4.012;2023-05-10T12:54:38;16.80;99.90
23544;DHT22;11950;51.230;4.012;2023-05-10T12:57:04;16.80;99.90
23544;DHT22;11950;51.230;4.012;2023-05-10T12:59:31;16.80;99.90
23544;DHT22;11950;51.230;4.012;2023-05-10T13:01:57;16.80;99.90
23544;DHT22;11950;51.230;4.012;2023-05-10T13:04:24;16.80;99.90
23544;DHT22;11950;51.230;4.012;2023-05-10T13:06:50;16.80;99.90
23544;DHT22;11950;51.230;4.012;2023-05-10T13:09:29;16.80;99.90
23544;DHT22;11950;51.230;4.012;2023-05-10T13:11:56;16.80;99.90
23544;DHT22;11950;51.230;4.012;2023-05-10T13:14:22;16.90;99.90
23544;DHT22;11950;51.230;4.012;2023-05-10T13:16:54;16.90;99.90
23544;DHT22;11950;51.230;4.012;2023-05-10T13:19:20;16.80;99.90
23544;DHT22;11950;51.230;4.012;2023-05-10T13:21:52;16.90;99.90
23544;DHT22;11950;51.230;4.012;2023-05-10T13:24:19;16.90;99.90
23544;DHT22;11950;51.230;4.012;2023-05-10T13:26:48;16.80;99.90
23544;DHT22;11950;51.230;4.012;2023-05-10T13:29:24;16.90;99.90
23544;DHT22;11950;51.230;4.012;2023-05-10T13:32:01;16.90;99.90
23544;DHT22;11950;51.230;4.012;2023-05-10T13:34:31;16.90;99.90
23544;DHT22;11950;51.230;4.012;2023-05-10T13:37:16;16.90;99.90
23544;DHT22;11950;51.230;4.012;2023-05-10T13:39:43;16.90;99.90
23544;DHT22;11950;51.230;4.012;2023-05-10T13:42:09;16.90;99.90
23544;DHT22;11950;51.230;4.012;2023-05-10T13:44:39;16.90;99.90
23544;DHT22;11950;51.230;4.012;2023-05-10T13:47:06;16.80;99.90
23544;DHT22;11950;51.230;4.012;2023-05-10T13:49:35;16.70;99.90
23544;DHT22;11950;51.230;4.012;2023-05-10T13:55:37;16.60;99.90
23544;DHT22;11950;51.230;4.012;2023-05-10T13:58:09;16.40;99.90
23544;DHT22;11950;51.230;4.012;2023-05-10T14:00:36;16.30;99.90
23544;DHT22;11950;51.230;4.012;2023-05-10T14:03:02;16.30;99.90
23544;DHT22;11950;51.230;4.012;2023-05-10T14:05:30;16.20;99.90
23544;DHT22;11950;51.230;4.012;2023-05-10T14:07:57;16.10;99.90
23544;DHT22;11950;51.230;4.012;2023-05-10T14:10:26;16.00;99.90
23544;DHT22;11950;51.230;4.012;2023-05-10T14:12:52;16.00;99.90
23544;DHT22;11950;51.230;4.012;2023-05-10T14:15:18;16.00;99.90
23544;DHT22;11950;51.230;4.012;2023-05-10T14:17:45;16.00;99.90
23544;DHT22;11950;51.230;4.012;2023-05-10T14:24:06;15.90;99.90
23544;DHT22;11950;51.230;4.012;2023-05-10T14:26:33;15.80;99.90
23544;DHT22;11950;51.230;4.012;2023-05-10T14:29:00;15.70;99.90
23544;DHT22;11950;51.230;4.012;2023-05-10T14:31:26;15.70;99.90
23544;DHT22;11950;51.230;4.012;2023-05-10T14:33:53;15.60;99.90
23544;DHT22;11950;51.230;4.012;2023-05-10T14:36:19;15.50;99.90
23544;DHT22;11950;51.230;4.012;2023-05-10T14:38:45;15.50;99.90
23544;DHT22;11950;51.230;4.012;2023-05-10T14:41:12;15.40;99.90
23544;DHT22;11950;51.230;4.012;2023-05-10T14:43:41;15.50;99.90
23544;DHT22;11950;51.230;4.012;2023-05-10T14:46:07;15.50;99.90
23544;DHT22;11950;51.230;4.012;2023-05-10T14:48:33;15.50;99.90
23544;DHT22;11950;51.230;4.012;2023-05-10T14:50:59;15.50;99.90
23544;DHT22;11950;51.230;4.012;2023-05-10T14:53:26;15.50;99.90
23544;DHT22;11950;51.230;4.012;2023-05-10T14:55:52;15.50;99.90
23544;DHT22;11950;51.230;4.012;2023-05-10T14:58:18;15.50;99.90
23544;DHT22;11950;51.230;4.012;2023-05-10T15:00:45;15.50;99.90
23544;DHT22;11950;51.230;4.012;2023-05-10T15:03:12;15.50;99.90
23544;DHT22;11950;51.230;4.012;2023-05-10T15:05:38;15.50;99.90
23544;DHT22;11950;51.230;4.012;2023-05-10T15:08:05;15.50;99.90
23544;DHT22;11950;51.230;4.012;2023-05-10T15:10:35;15.50;99.90
23544;DHT22;11950;51.230;4.012;2023-05-10T15:13:03;15.50;99.90
23544;DHT22;11950;51.230;4.012;2023-05-10T15:15:30;15.50;99.90
23544;DHT22;11950;51.230;4.012;2023-05-10T15:17:56;15.50;99.90
23544;DHT22;11950;51.230;4.012;2023-05-10T15:20:22;15.60;99.90
23544;DHT22;11950;51.230;4.012;2023-05-10T15:22:49;15.50;99.90
23544;DHT22;11950;51.230;4.012;2023-05-10T15:25:15;15.60;99.90
23544;DHT22;11950;51.230;4.012;2023-05-10T15:27:41;15.60;99.90
23544;DHT22;11950;51.230;4.012;2023-05-10T15:30:10;15.60;99.90
23544;DHT22;11950;51.230;4.012;2023-05-10T15:32:37;15.60;99.90
23544;DHT22;11950;51.230;4.012;2023-05-10T15:35:06;15.60;99.90
23544;DHT22;11950;51.230;4.012;2023-05-10T15:37:32;15.60;99.90
23544;DHT22;11950;51.230;4.012;2023-05-10T15:39:58;15.60;99.90
23544;DHT22;11950;51.230;4.012;2023-05-10T15:42:30;15.60;99.90
23544;DHT22;11950;51.230;4.012;2023-05-10T15:44:57;15.60;99.90
23544;DHT22;11950;51.230;4.012;2023-05-10T15:47:26;15.60;99.90
23544;DHT22;11950;51.230;4.012;2023-05-10T15:49:53;15.60;99.90
23544;DHT22;11950;51.230;4.012;2023-05-10T15:52:20;15.70;99.90
23544;DHT22;11950;51.230;4.012;2023-05-10T15:54:46;15.70;99.90
23544;DHT22;11950;51.230;4.012;2023-05-10T15:57:12;15.70;99.90
23544;DHT22;11950;51.230;4.012;2023-05-10T15:59:39;15.70;99.90
23544;DHT22;11950;51.230;4.012;2023-05-10T16:02:06;15.70;99.90
23544;DHT22;11950;51.230;4.012;2023-05-10T16:04:32;15.70;99.90
23544;DHT22;11950;51.230;4.012;2023-05-10T16:06:58;15.70;99.90
23544;DHT22;11950;51.230;4.012;2023-05-10T16:09:25;15.70;99.90
23544;DHT22;11950;51.230;4.012;2023-05-10T16:11:52;15.70;99.90
23544;DHT22;11950;51.230;4.012;2023-05-10T16:14:18;15.70;99.90
23544;DHT22;11950;51.230;4.012;2023-05-10T16:16:47;15.80;99.90
23544;DHT22;11950;51.230;4.012;2023-05-10T16:19:13;15.80;99.90
23544;DHT22;11950;51.230;4.012;2023-05-10T16:21:40;15.80;99.90
23544;DHT22;11950;51.230;4.012;2023-05-10T16:24:07;15.80;99.90
23544;DHT22;11950;51.230;4.012;2023-05-10T16:26:33;15.80;99.90
23544;DHT22;11950;51.230;4.012;2023-05-10T16:29:07;15.80;99.90
23544;DHT22;11950;51.230;4.012;2023-05-10T16:31:33;15.80;99.90
23544;DHT22;11950;51.230;4.012;2023-05-10T16:33:59;15.80;99.90
23544;DHT22;11950;51.230;4.012;2023-05-10T16:36:26;15.80;99.90
23544;DHT22;11950;51.230;4.012;2023-05-10T16:38:53;15.80;99.90
23544;DHT22;11950;51.230;4.012;2023-05-10T16:41:19;15.80;99.90
23544;DHT22;11950;51.230;4.012;2023-05-10T16:43:46;15.90;99.90
23544;DHT22;11950;51.230;4.012;2023-05-10T16:46:12;15.90;99.90
23544;DHT22;11950;51.230;4.012;2023-05-10T16:48:38;15.80;99.90
23544;DHT22;11950;51.230;4.012;2023-05-10T16:51:05;15.80;99.90
23544;DHT22;11950;51.230;4.012;2023-05-10T16:53:31;15.80;99.90
23544;DHT22;11950;51.230;4.012;2023-05-10T16:55:57;15.80;99.90
23544;DHT22;11950;51.230;4.012;2023-05-10T16:58:23;15.80;99.90
23544;DHT22;11950;51.230;4.012;2023-05-10T17:00:50;15.80;99.90
23544;DHT22;11950;51.230;4.012;2023-05-10T17:03:17;15.80;99.90
23544;DHT22;11950;51.230;4.012;2023-05-10T17:05:43;15.70;99.90
23544;DHT22;11950;51.230;4.012;2023-05-10T17:08:09;15.70;99.90